Gaschem Phoenix — ELUO6 — position and weather

sailwx.info

Track history (hours):
 
Tides and Currents Weather Stations Pressure Air Temp Water Temp Dewpoint Dewpoint Depression Visibility Wind Speed Wind Dir Waves Ship Positions

Gaschem Phoenix

Last reported at 2014-Sep-18 23:33 UTC. Time now 2014-Sep-20 10:00 UTC.
Position N 34°03' E 130°42'.

Length 100 m; draft 6.1 m.

Type: Ship. MMSI: 636090235.

Date/timePositionNaut miles runAvg speedWind from/ knotsBaromVisibWave heightAir tempDewpointWater temp
2014-Sep-18 23:33N 34°03' E 130°42'436 9.8
2014-Sep-17 03:06N 34°57' E 139°27'3 4.6
2014-Sep-17 02:29N 34°58' E 139°30'1111.5
2014-Sep-17 01:33N 35°03' E 139°41'1211.8
2014-Sep-17 00:33N 35°14' E 139°46'1110.8
2014-Sep-16 23:33N 35°25' E 139°44'1211.9
2014-Sep-16 22:33N 35°31' E 139°56'6 6.2
2014-Sep-16 21:33N 35°32' E 140°03'0 0.0
2014-Sep-16 03:33N 35°32' E 140°03'8 8.5
2014-Sep-16 02:33N 35°30' E 139°53'1211.8
2014-Sep-16 01:33N 35°20' E 139°45'1111.3
2014-Sep-16 00:33N 35°09' E 139°46'1312.5
2014-Sep-15 23:33N 34°59' E 139°35'  
2014-Sep-12 16:25N 30°58' E 122°54'2311.0
2014-Sep-12 14:21N 31°00' E 122°28'810.1
2014-Sep-12 13:32N 31°02' E 122°19'2711.6
2014-Sep-12 11:11N 31°12' E 121°49'914.7
2014-Sep-12 10:33N 31°19' E 121°42'1211.5
2014-Sep-12 09:31N 31°25' E 121°30'1111.4
2014-Sep-12 08:33N 31°32' E 121°20'1311.6
2014-Sep-12 07:28N 31°41' E 121°10'9 9.9
2014-Sep-12 06:33N 31°46' E 121°01'1110.9
2014-Sep-12 05:33N 31°55' E 120°53'1212.4
2014-Sep-12 04:33N 31°60' E 120°39'1211.7
2014-Sep-12 03:34N 32°03' E 120°26'1414.0
2014-Sep-12 02:33N 31°56' E 120°12'10 9.7
2014-Sep-12 01:33N 31°58' E 120°01'0 0.0
2014-Sep-12 00:15N 31°58' E 120°01'0 0.0
2014-Sep-11 23:26N 31°58' E 120°01'0 0.0
2014-Sep-11 22:29N 31°58' E 120°01'0 0.0
2014-Sep-11 21:32N 31°58' E 120°01'0 0.0
2014-Sep-11 20:10N 31°58' E 120°01'0 0.0
2014-Sep-11 19:33N 31°58' E 120°01'0 0.0
2014-Sep-11 17:20N 31°58' E 120°01'0 0.0
2014-Sep-11 16:30N 31°58' E 120°01'0 0.0
2014-Sep-11 15:22N 31°58' E 120°01'0 0.0
2014-Sep-11 14:30N 31°58' E 120°01'0 0.0
2014-Sep-11 13:24N 31°58' E 120°01'0 0.0
2014-Sep-11 12:30N 31°58' E 120°01'0 0.0
2014-Sep-11 11:29N 31°58' E 120°01'0 0.0
2014-Sep-11 10:31N 31°58' E 120°01'0 0.0
2014-Sep-11 09:28N 31°58' E 120°01'0 0.0
2014-Sep-11 08:31N 31°58' E 120°01'0 0.0
2014-Sep-11 07:30N 31°58' E 120°01'0 0.0
2014-Sep-11 06:33N 31°58' E 120°01'0 0.0
2014-Sep-11 05:32N 31°58' E 120°01'0 0.0
2014-Sep-11 04:32N 31°58' E 120°01'0 0.0
2014-Sep-11 03:13N 31°58' E 120°01'0 0.0
2014-Sep-11 02:31N 31°58' E 120°01'0 0.0
2014-Sep-11 01:28N 31°58' E 120°01'0 0.0
2014-Sep-11 00:30N 31°58' E 120°01'0 0.0
2014-Sep-10 23:30N 31°58' E 120°01'0 0.0
2014-Sep-10 22:11N 31°58' E 120°01'1 0.1
2014-Sep-10 13:33N 31°58' E 120°02'9 9.6
2014-Sep-10 12:33N 31°56' E 120°13'10 9.6
2014-Sep-10 11:33N 32°01' E 120°23'9 9.1
2014-Sep-10 10:33N 32°03' E 120°33'10 9.6
2014-Sep-10 09:33N 32°01' E 120°44'1010.0
2014-Sep-10 08:33N 31°54' E 120°53'1511.2
2014-Sep-10 07:16N 31°45' E 121°06'1013.6
2014-Sep-10 06:31N 31°38' E 121°15'1212.5
2014-Sep-10 05:33N 31°30' E 121°26'10 9.9
2014-Sep-10 04:33N 31°24' E 121°34'1010.2
2014-Sep-10 03:32N 31°17' E 121°44'3511.2
2014-Sep-10 00:26N 31°02' E 122°21'9 7.7
2014-Sep-09 23:13N 31°00' E 122°31'11 1.1
2014-Sep-09 14:04N 30°58' E 122°43'  
Track history (hours):
 
Tides and Currents Weather Stations Pressure Air Temp Water Temp Dewpoint Dewpoint Depression Visibility Wind Speed Wind Dir Waves Ship Positions

Gaschem Phoenix

Last reported at 2014-Sep-18 23:33 UTC. Time now 2014-Sep-20 10:00 UTC.
Position N 34°03' E 130°42'.

Length 100 m; draft 6.1 m.

Type: Ship. MMSI: 636090235.

Date/timePositionNaut miles runAvg speedWind from/ knotsBaromVisibWave heightAir tempDewpointWater temp
2014-Sep-18 23:33N 34°03' E 130°42'436 9.8
2014-Sep-17 03:06N 34°57' E 139°27'3 4.6
2014-Sep-17 02:29N 34°58' E 139°30'1111.5
2014-Sep-17 01:33N 35°03' E 139°41'1211.8
2014-Sep-17 00:33N 35°14' E 139°46'1110.8
2014-Sep-16 23:33N 35°25' E 139°44'1211.9
2014-Sep-16 22:33N 35°31' E 139°56'6 6.2
2014-Sep-16 21:33N 35°32' E 140°03'0 0.0
2014-Sep-16 03:33N 35°32' E 140°03'8 8.5
2014-Sep-16 02:33N 35°30' E 139°53'1211.8
2014-Sep-16 01:33N 35°20' E 139°45'1111.3
2014-Sep-16 00:33N 35°09' E 139°46'1312.5
2014-Sep-15 23:33N 34°59' E 139°35'  
2014-Sep-12 16:25N 30°58' E 122°54'2311.0
2014-Sep-12 14:21N 31°00' E 122°28'810.1
2014-Sep-12 13:32N 31°02' E 122°19'2711.6
2014-Sep-12 11:11N 31°12' E 121°49'914.7
2014-Sep-12 10:33N 31°19' E 121°42'1211.5
2014-Sep-12 09:31N 31°25' E 121°30'1111.4
2014-Sep-12 08:33N 31°32' E 121°20'1311.6
2014-Sep-12 07:28N 31°41' E 121°10'9 9.9
2014-Sep-12 06:33N 31°46' E 121°01'1110.9
2014-Sep-12 05:33N 31°55' E 120°53'1212.4
2014-Sep-12 04:33N 31°60' E 120°39'1211.7
2014-Sep-12 03:34N 32°03' E 120°26'1414.0
2014-Sep-12 02:33N 31°56' E 120°12'10 9.7
2014-Sep-12 01:33N 31°58' E 120°01'0 0.0
2014-Sep-12 00:15N 31°58' E 120°01'0 0.0
2014-Sep-11 23:26N 31°58' E 120°01'0 0.0
2014-Sep-11 22:29N 31°58' E 120°01'0 0.0
2014-Sep-11 21:32N 31°58' E 120°01'0 0.0
2014-Sep-11 20:10N 31°58' E 120°01'0 0.0
2014-Sep-11 19:33N 31°58' E 120°01'0 0.0
2014-Sep-11 17:20N 31°58' E 120°01'0 0.0
2014-Sep-11 16:30N 31°58' E 120°01'0 0.0
2014-Sep-11 15:22N 31°58' E 120°01'0 0.0
2014-Sep-11 14:30N 31°58' E 120°01'0 0.0
2014-Sep-11 13:24N 31°58' E 120°01'0 0.0
2014-Sep-11 12:30N 31°58' E 120°01'0 0.0
2014-Sep-11 11:29N 31°58' E 120°01'0 0.0
2014-Sep-11 10:31N 31°58' E 120°01'0 0.0
2014-Sep-11 09:28N 31°58' E 120°01'0 0.0
2014-Sep-11 08:31N 31°58' E 120°01'0 0.0
2014-Sep-11 07:30N 31°58' E 120°01'0 0.0
2014-Sep-11 06:33N 31°58' E 120°01'0 0.0
2014-Sep-11 05:32N 31°58' E 120°01'0 0.0
2014-Sep-11 04:32N 31°58' E 120°01'0 0.0
2014-Sep-11 03:13N 31°58' E 120°01'0 0.0
2014-Sep-11 02:31N 31°58' E 120°01'0 0.0
2014-Sep-11 01:28N 31°58' E 120°01'0 0.0
2014-Sep-11 00:30N 31°58' E 120°01'0 0.0
2014-Sep-10 23:30N 31°58' E 120°01'0 0.0
2014-Sep-10 22:11N 31°58' E 120°01'1 0.1
2014-Sep-10 13:33N 31°58' E 120°02'9 9.6
2014-Sep-10 12:33N 31°56' E 120°13'10 9.6
2014-Sep-10 11:33N 32°01' E 120°23'9 9.1
2014-Sep-10 10:33N 32°03' E 120°33'10 9.6
2014-Sep-10 09:33N 32°01' E 120°44'1010.0
2014-Sep-10 08:33N 31°54' E 120°53'1511.2
2014-Sep-10 07:16N 31°45' E 121°06'1013.6
2014-Sep-10 06:31N 31°38' E 121°15'1212.5
2014-Sep-10 05:33N 31°30' E 121°26'10 9.9
2014-Sep-10 04:33N 31°24' E 121°34'1010.2
2014-Sep-10 03:32N 31°17' E 121°44'3511.2
2014-Sep-10 00:26N 31°02' E 122°21'9 7.7
2014-Sep-09 23:13N 31°00' E 122°31'11 1.1
2014-Sep-09 14:04N 30°58' E 122°43'  

Dump ship's entire track history